createdAt,value
2018-06-19T00:01:13.844Z,59.35
2018-06-19T00:03:43.314Z,58.79
2018-06-19T00:06:12.182Z,59.78
2018-06-19T00:08:40.951Z,59.77
2018-06-19T00:11:10.614Z,58.95
2018-06-19T00:13:39.605Z,58.83
2018-06-19T00:16:08.546Z,58.74
2018-06-19T00:18:45.789Z,58.81
2018-06-19T00:21:20.055Z,58.96
2018-06-19T00:23:48.846Z,59.31
2018-06-19T00:26:17.645Z,59.46
2018-06-19T00:28:47.573Z,59.32
2018-06-19T00:31:16.349Z,59.18
2018-06-19T00:33:45.094Z,59.01
2018-06-19T00:36:13.866Z,60.08
2018-06-19T00:38:42.621Z,59.95
2018-06-19T00:41:11.394Z,59.59
2018-06-19T00:43:40.162Z,59.71
2018-06-19T00:46:09.346Z,60.49
2018-06-19T00:48:38.147Z,59.85
2018-06-19T00:51:06.900Z,60.57
2018-06-19T00:53:35.657Z,60.23
2018-06-19T00:56:15.582Z,60.05
2018-06-19T00:58:44.391Z,59.64
2018-06-19T01:01:13.166Z,59.84
2018-06-19T01:03:41.992Z,60.11
2018-06-19T01:06:10.790Z,59.59
2018-06-19T01:08:39.598Z,60.28
2018-06-19T01:11:08.569Z,60.35
2018-06-19T01:13:37.347Z,60.54
2018-06-19T01:16:06.241Z,60.51
2018-06-19T01:18:35.019Z,60.48
2018-06-19T01:21:03.778Z,60.28
2018-06-19T01:23:32.549Z,60.19
2018-06-19T01:26:01.311Z,59.92
2018-06-19T01:28:30.129Z,60.15
2018-06-19T01:30:58.917Z,60.00
2018-06-19T01:33:27.685Z,59.90
2018-06-19T01:35:56.458Z,60.17
2018-06-19T01:38:25.214Z,60.22
2018-06-19T01:40:54.056Z,61.22
2018-06-19T01:43:22.857Z,61.18
2018-06-19T01:45:51.653Z,61.03
2018-06-19T01:48:20.403Z,60.41
2018-06-19T01:50:49.165Z,60.95
2018-06-19T01:53:17.933Z,61.24
2018-06-19T01:55:46.714Z,61.03
2018-06-19T01:58:15.530Z,61.03
2018-06-19T02:00:44.318Z,61.35
2018-06-19T02:03:13.106Z,61.41
2018-06-19T02:05:41.876Z,60.75
2018-06-19T02:08:10.711Z,60.44
2018-06-19T02:10:39.492Z,60.88
2018-06-19T02:13:08.277Z,60.74
2018-06-19T02:15:37.050Z,60.85
2018-06-19T02:18:05.866Z,60.99
2018-06-19T02:20:34.669Z,61.42
2018-06-19T02:23:03.466Z,61.08
2018-06-19T02:25:32.254Z,60.84
2018-06-19T02:28:01.075Z,60.86
2018-06-19T02:30:29.863Z,60.82
2018-06-19T02:32:58.646Z,60.75
2018-06-19T02:35:27.411Z,61.04
2018-06-19T02:37:56.195Z,61.04
2018-06-19T02:40:25.011Z,62.10
2018-06-19T02:42:53.796Z,61.69
2018-06-19T02:45:22.577Z,61.83
2018-06-19T02:47:51.330Z,61.84
2018-06-19T02:50:20.150Z,62.29
2018-06-19T02:52:48.965Z,62.16
2018-06-19T02:55:17.741Z,63.60
2018-06-19T02:57:46.535Z,62.72
2018-06-19T03:00:15.378Z,62.26
2018-06-19T03:02:44.136Z,62.37
2018-06-19T03:05:12.962Z,62.87
2018-06-19T03:07:41.732Z,63.46
2018-06-19T03:10:10.514Z,63.32
2018-06-19T03:12:39.573Z,63.23
2018-06-19T03:15:08.351Z,63.41
2018-06-19T03:17:37.122Z,63.74
2018-06-19T03:20:05.962Z,63.19
2018-06-19T03:22:34.729Z,63.17
2018-06-19T03:25:03.566Z,63.51
2018-06-19T03:27:32.326Z,63.49
2018-06-19T03:30:01.131Z,63.41
2018-06-19T03:32:29.905Z,63.03
2018-06-19T03:34:58.688Z,63.04
2018-06-19T03:37:27.451Z,63.46
2018-06-19T03:39:56.258Z,63.69
2018-06-19T03:42:25.078Z,63.80
2018-06-19T03:44:53.856Z,63.28
2018-06-19T03:47:22.632Z,63.39
2018-06-19T03:49:51.423Z,63.69
2018-06-19T03:52:20.186Z,63.44
2018-06-19T03:54:48.957Z,63.31
2018-06-19T03:57:17.729Z,63.17
2018-06-19T03:59:46.482Z,63.24
2018-06-19T04:02:15.250Z,63.13
2018-06-19T04:04:44.073Z,62.75
2018-06-19T04:07:12.851Z,62.67
2018-06-19T04:09:41.634Z,63.52
2018-06-19T04:12:10.394Z,63.23
2018-06-19T04:14:39.167Z,62.88
2018-06-19T04:17:07.930Z,62.78
2018-06-19T04:19:36.703Z,62.75
2018-06-19T04:22:05.491Z,62.37
2018-06-19T04:24:34.249Z,62.16
2018-06-19T04:27:03.022Z,62.25
2018-06-19T04:29:31.790Z,62.02
2018-06-19T04:32:00.580Z,61.89
2018-06-19T04:34:29.355Z,61.66
2018-06-19T04:36:58.122Z,61.26
2018-06-19T04:39:26.901Z,60.95
2018-06-19T04:41:55.692Z,60.36
2018-06-19T04:44:24.481Z,60.08
2018-06-19T04:46:53.262Z,59.54
2018-06-19T04:49:22.019Z,59.22
2018-06-19T04:51:50.820Z,59.24
2018-06-19T04:54:19.580Z,59.02
2018-06-19T04:56:48.381Z,58.59
2018-06-19T04:59:17.170Z,58.01
2018-06-19T05:01:45.946Z,57.63
2018-06-19T05:04:14.795Z,57.05
2018-06-19T05:06:43.658Z,56.73
2018-06-19T05:09:14.025Z,56.75
2018-06-19T05:11:44.389Z,56.27
2018-06-19T05:14:13.182Z,56.14
2018-06-19T05:16:42.490Z,55.38
2018-06-19T05:19:11.605Z,55.78
2018-06-19T05:21:40.411Z,55.25
2018-06-19T05:24:09.203Z,55.04
2018-06-19T05:26:38.069Z,55.27
2018-06-19T05:29:06.834Z,55.00
2018-06-19T05:31:35.609Z,54.92
2018-06-19T05:34:04.718Z,54.86
2018-06-19T05:36:33.485Z,55.35
2018-06-19T05:39:02.334Z,55.16
2018-06-19T05:41:31.137Z,55.22
2018-06-19T05:44:00.082Z,55.34
2018-06-19T05:46:28.856Z,55.63
2018-06-19T05:48:57.647Z,56.26
2018-06-19T05:51:26.434Z,57.74
2018-06-19T05:53:55.201Z,57.36
2018-06-19T05:56:24.001Z,58.26
2018-06-19T05:58:52.836Z,58.06
2018-06-19T06:01:21.601Z,58.07
2018-06-19T06:03:50.389Z,57.97
2018-06-19T06:06:19.418Z,57.89
2018-06-19T06:08:48.206Z,57.84
2018-06-19T06:11:17.045Z,57.85
2018-06-19T06:13:45.807Z,57.65
2018-06-19T06:16:14.572Z,57.43
2018-06-19T06:18:43.318Z,57.31
2018-06-19T06:21:12.106Z,57.63
2018-06-19T06:23:40.952Z,57.59
2018-06-19T06:26:09.771Z,57.62
2018-06-19T06:28:38.549Z,58.23
2018-06-19T06:31:07.542Z,58.63
2018-06-19T06:33:36.403Z,58.52
2018-06-19T06:36:05.529Z,59.16
2018-06-19T06:38:34.308Z,59.21
2018-06-19T06:41:03.093Z,59.30
2018-06-19T06:43:31.862Z,59.87
2018-06-19T06:46:00.773Z,59.37
2018-06-19T06:48:29.730Z,59.81
2018-06-19T06:50:58.678Z,59.22
2018-06-19T06:53:27.559Z,59.32
2018-06-19T06:55:56.330Z,59.36
2018-06-19T06:58:25.292Z,59.21
2018-06-19T07:00:54.061Z,59.00
2018-06-19T07:03:23.385Z,59.05
2018-06-19T07:05:52.690Z,58.85
2018-06-19T07:08:21.454Z,58.71
2018-06-19T07:10:50.266Z,58.23
2018-06-19T07:13:19.063Z,57.83
2018-06-19T07:15:48.076Z,57.64
2018-06-19T07:18:16.842Z,57.40
2018-06-19T07:20:45.709Z,57.07
2018-06-19T07:23:14.469Z,56.64
2018-06-19T07:25:43.287Z,56.27
2018-06-19T07:28:12.044Z,55.29
2018-06-19T07:30:40.815Z,55.89
2018-06-19T07:33:09.573Z,55.42
2018-06-19T07:35:38.391Z,55.25
2018-06-19T07:38:07.196Z,55.33
2018-06-19T07:40:36.047Z,55.15
2018-06-19T07:43:05.601Z,54.90
2018-06-19T07:45:34.897Z,54.67
2018-06-19T07:48:03.685Z,54.65
2018-06-19T07:50:38.986Z,54.67
2018-06-19T07:53:07.781Z,53.80
2018-06-19T07:55:36.570Z,53.97
2018-06-19T07:58:05.415Z,53.71
2018-06-19T08:00:34.233Z,53.93
2018-06-19T08:03:03.018Z,54.86
2018-06-19T08:05:31.806Z,55.41
2018-06-19T08:08:00.575Z,55.82
2018-06-19T08:10:29.357Z,56.96
2018-06-19T08:12:58.115Z,57.37
2018-06-19T08:15:26.883Z,58.06
2018-06-19T08:17:55.681Z,58.20
2018-06-19T08:20:24.482Z,58.27
2018-06-19T08:22:53.273Z,58.69
2018-06-19T08:25:22.056Z,60.31
2018-06-19T08:27:50.817Z,59.30
2018-06-19T08:30:19.618Z,59.27
2018-06-19T08:32:48.418Z,60.75
2018-06-19T08:35:17.217Z,60.28
2018-06-19T08:37:46.294Z,59.66
2018-06-19T08:40:15.042Z,58.92
2018-06-19T08:42:43.859Z,59.56
2018-06-19T08:45:12.640Z,58.92
2018-06-19T08:47:41.432Z,57.75
2018-06-19T08:50:10.248Z,57.88
2018-06-19T08:52:39.009Z,57.24
2018-06-19T08:55:07.832Z,56.98
2018-06-19T08:57:36.581Z,56.58
2018-06-19T09:00:05.473Z,56.49
2018-06-19T09:02:34.263Z,56.22
2018-06-19T09:05:03.129Z,56.30
2018-06-19T09:07:32.068Z,56.12
2018-06-19T09:10:00.845Z,56.72
2018-06-19T09:12:29.610Z,55.23
2018-06-19T09:14:58.801Z,54.90
2018-06-19T09:17:27.575Z,54.96
2018-06-19T09:19:56.396Z,53.62
2018-06-19T09:22:25.553Z,54.02
2018-06-19T09:24:54.317Z,53.74
2018-06-19T09:27:23.063Z,52.98
2018-06-19T09:29:51.895Z,53.15
2018-06-19T09:32:20.717Z,52.84
2018-06-19T09:34:49.531Z,50.08
2018-06-19T09:37:18.361Z,50.69
2018-06-19T09:39:47.189Z,50.00
2018-06-19T09:42:15.958Z,50.76
2018-06-19T09:44:44.814Z,50.80
2018-06-19T09:47:13.634Z,50.08
2018-06-19T09:49:42.530Z,50.88
2018-06-19T09:52:11.327Z,50.30
2018-06-19T09:54:40.241Z,49.57
2018-06-19T09:57:09.041Z,49.17
2018-06-19T09:59:37.908Z,49.85
2018-06-19T10:02:06.741Z,49.02
2018-06-19T10:04:35.514Z,49.23
2018-06-19T10:07:04.665Z,49.05
2018-06-19T10:09:33.509Z,48.36
2018-06-19T10:12:02.358Z,48.76
2018-06-19T10:14:31.170Z,49.96
2018-06-19T10:16:59.959Z,50.38
2018-06-19T10:19:28.791Z,50.65
2018-06-19T10:21:57.594Z,50.54
2018-06-19T10:24:26.365Z,49.49
2018-06-19T10:26:55.167Z,49.57
2018-06-19T10:29:24.048Z,48.96
2018-06-19T10:31:52.789Z,47.83
2018-06-19T10:34:21.565Z,47.95
2018-06-19T10:36:50.318Z,48.28
2018-06-19T10:39:19.118Z,48.31
2018-06-19T10:41:47.949Z,47.21
2018-06-19T10:44:16.728Z,46.72
2018-06-19T10:46:45.512Z,46.80
2018-06-19T10:49:14.301Z,44.81
2018-06-19T10:51:43.244Z,46.18
2018-06-19T10:54:11.990Z,45.30
2018-06-19T10:56:40.751Z,45.99
2018-06-19T10:59:09.623Z,46.19
2018-06-19T11:01:38.425Z,45.60
2018-06-19T11:04:07.239Z,44.81
2018-06-19T11:06:36.069Z,45.39
2018-06-19T11:09:06.987Z,45.14
2018-06-19T11:11:35.778Z,43.92
2018-06-19T11:14:04.588Z,44.39
2018-06-19T11:16:33.362Z,43.99
2018-06-19T11:19:02.128Z,45.13
2018-06-19T11:21:30.986Z,45.31
2018-06-19T11:23:59.851Z,43.85
2018-06-19T11:26:28.617Z,43.86
2018-06-19T11:28:57.422Z,42.59
2018-06-19T11:31:26.167Z,42.39
2018-06-19T11:33:54.996Z,41.97
2018-06-19T11:36:23.786Z,41.77
2018-06-19T11:38:52.581Z,42.51
2018-06-19T11:41:21.345Z,42.23
2018-06-19T11:43:50.318Z,42.38
2018-06-19T11:46:19.226Z,42.45
2018-06-19T11:48:47.993Z,42.85
2018-06-19T11:51:16.919Z,42.41
2018-06-19T11:53:45.750Z,43.45
2018-06-19T11:56:14.530Z,42.13
2018-06-19T11:58:43.348Z,42.26
2018-06-19T12:01:12.218Z,42.13
2018-06-19T12:03:41.003Z,42.82
2018-06-19T12:06:09.777Z,43.32
2018-06-19T12:08:38.516Z,42.38
2018-06-19T12:11:07.278Z,42.01
2018-06-19T12:13:36.078Z,41.43
2018-06-19T12:16:04.870Z,39.40
2018-06-19T12:18:33.621Z,41.63
2018-06-19T12:21:02.538Z,41.27
2018-06-19T12:23:31.535Z,39.89
2018-06-19T12:26:00.327Z,39.07
2018-06-19T12:28:29.194Z,40.47
2018-06-19T12:30:57.978Z,39.89
2018-06-19T12:33:26.773Z,40.76
2018-06-19T12:35:55.553Z,39.48
2018-06-19T12:38:24.295Z,38.59
2018-06-19T12:40:53.085Z,37.29
2018-06-19T12:43:22.017Z,38.14
2018-06-19T12:45:50.800Z,37.05
2018-06-19T12:48:19.553Z,36.92
2018-06-19T12:52:02.326Z,36.10
2018-06-19T12:55:41.805Z,37.10
2018-06-19T12:58:10.714Z,37.83
2018-06-19T13:00:39.478Z,37.33
2018-06-19T13:03:19.351Z,36.49
2018-06-19T13:05:59.243Z,36.27
2018-06-19T13:08:28.086Z,36.99
2018-06-19T13:10:56.964Z,37.39
2018-06-19T13:13:36.774Z,36.50
2018-06-19T13:16:05.672Z,35.41
2018-06-19T13:18:45.537Z,35.43
2018-06-19T13:21:14.331Z,35.40
2018-06-19T13:23:43.105Z,35.11
2018-06-19T13:26:11.913Z,36.63
2018-06-19T13:29:57.461Z,37.18
2018-06-19T13:32:26.585Z,39.97
2018-06-19T13:34:55.435Z,42.49
2018-06-19T13:37:24.439Z,43.87
2018-06-19T13:41:12.270Z,44.40
2018-06-19T13:43:52.155Z,44.90
2018-06-19T13:46:21.085Z,46.81
2018-06-19T13:48:49.941Z,47.20
2018-06-19T13:51:18.773Z,48.83
2018-06-19T13:53:47.552Z,47.51
2018-06-19T13:57:29.929Z,47.40
2018-06-19T13:59:59.577Z,46.63
2018-06-19T14:02:28.382Z,46.08
2018-06-19T14:04:57.362Z,46.18
2018-06-19T14:07:26.963Z,45.69
2018-06-19T14:10:07.124Z,45.94
2018-06-19T14:13:12.889Z,45.65
2018-06-19T14:15:50.322Z,45.45
2018-06-19T14:18:20.448Z,44.75
2018-06-19T14:20:49.360Z,43.34
2018-06-19T14:23:18.195Z,43.78
2018-06-19T14:25:46.995Z,43.58
2018-06-19T14:28:15.789Z,42.40
2018-06-19T14:30:44.573Z,43.11
2018-06-19T14:33:13.386Z,43.51
2018-06-19T14:35:42.173Z,42.78
2018-06-19T14:38:10.998Z,43.38
2018-06-19T14:40:39.837Z,43.06
2018-06-19T14:43:08.720Z,43.50
2018-06-19T14:45:37.485Z,42.74
2018-06-19T14:48:06.353Z,41.97
2018-06-19T14:50:35.154Z,41.84
2018-06-19T14:53:03.926Z,41.73
2018-06-19T14:55:32.766Z,41.87
2018-06-19T14:58:01.589Z,41.13
2018-06-19T15:00:30.398Z,40.32
2018-06-19T15:02:59.170Z,41.63
2018-06-19T15:05:28.027Z,40.19
2018-06-19T15:07:56.817Z,39.49
2018-06-19T15:10:25.645Z,41.05
2018-06-19T15:12:54.405Z,41.67
2018-06-19T15:15:23.234Z,41.92
2018-06-19T15:17:52.023Z,42.07
2018-06-19T15:20:20.847Z,42.27
2018-06-19T15:22:49.674Z,41.79
2018-06-19T15:25:18.597Z,41.41
2018-06-19T15:27:47.373Z,40.58
2018-06-19T15:30:16.153Z,40.93
2018-06-19T15:32:44.927Z,41.36
2018-06-19T15:35:13.730Z,40.46
2018-06-19T15:37:42.570Z,40.36
2018-06-19T15:40:11.334Z,40.90
2018-06-19T15:42:40.104Z,40.25
2018-06-19T15:45:08.883Z,40.35
2018-06-19T15:47:37.705Z,39.99
2018-06-19T15:50:06.594Z,40.19
2018-06-19T15:52:35.413Z,40.70
2018-06-19T15:55:04.226Z,40.93
2018-06-19T15:57:33.008Z,40.05
2018-06-19T16:00:01.822Z,39.13
2018-06-19T16:02:30.594Z,39.80
2018-06-19T16:04:59.389Z,40.26
2018-06-19T16:07:28.180Z,38.99
2018-06-19T16:09:56.925Z,39.75
2018-06-19T16:12:25.673Z,40.34
2018-06-19T16:14:54.437Z,40.47
2018-06-19T16:17:23.221Z,40.67
2018-06-19T16:19:52.002Z,40.49
2018-06-19T16:22:20.753Z,40.09
2018-06-19T16:24:49.538Z,39.87
2018-06-19T16:27:18.284Z,39.83
2018-06-19T16:29:47.042Z,40.00
2018-06-19T16:32:15.801Z,39.28
2018-06-19T16:34:45.446Z,39.59
2018-06-19T16:37:14.201Z,40.09
2018-06-19T16:39:43.120Z,39.63
2018-06-19T16:42:11.881Z,38.62
2018-06-19T16:44:40.741Z,39.52
2018-06-19T16:47:09.518Z,38.43
2018-06-19T16:49:38.293Z,39.09
2018-06-19T16:52:07.270Z,38.94
2018-06-19T16:54:36.047Z,38.32
2018-06-19T16:57:04.853Z,38.53
2018-06-19T16:59:33.633Z,36.95
2018-06-19T17:02:02.430Z,37.74
2018-06-19T17:04:31.193Z,36.68
2018-06-19T17:06:59.982Z,38.87
2018-06-19T17:09:28.733Z,40.96
2018-06-19T17:11:57.506Z,43.50
2018-06-19T17:14:26.293Z,44.82
2018-06-19T17:16:55.410Z,45.17
2018-06-19T17:19:24.201Z,47.46
2018-06-19T17:21:52.964Z,47.63
2018-06-19T17:24:21.701Z,47.02
2018-06-19T17:26:50.500Z,47.10
2018-06-19T17:29:19.250Z,47.71
2018-06-19T17:31:48.136Z,50.06
2018-06-19T17:34:16.926Z,51.93
2018-06-19T17:36:45.720Z,50.51
2018-06-19T17:39:14.502Z,50.63
2018-06-19T17:41:43.277Z,51.02
2018-06-19T17:44:12.037Z,51.36
2018-06-19T17:46:40.806Z,51.59
2018-06-19T17:49:09.579Z,51.55
2018-06-19T17:51:38.335Z,52.12
2018-06-19T17:54:07.205Z,51.67
2018-06-19T17:56:35.971Z,51.15
2018-06-19T17:59:04.737Z,50.19
2018-06-19T18:01:33.525Z,49.95
2018-06-19T18:04:02.285Z,49.53
2018-06-19T18:06:31.031Z,49.12
2018-06-19T18:08:59.777Z,49.22
2018-06-19T18:11:28.607Z,49.31
2018-06-19T18:13:57.376Z,50.19
2018-06-19T18:16:26.126Z,49.54
2018-06-19T18:18:54.886Z,50.59
2018-06-19T18:21:23.756Z,49.95
2018-06-19T18:23:52.599Z,50.41
2018-06-19T18:26:21.389Z,51.32
2018-06-19T18:28:50.183Z,50.91
2018-06-19T18:31:18.947Z,50.64
2018-06-19T18:33:47.695Z,53.04
2018-06-19T18:36:16.492Z,52.52
2018-06-19T18:38:45.290Z,52.36
2018-06-19T18:41:14.058Z,51.07
2018-06-19T18:43:42.843Z,50.85
2018-06-19T18:46:11.638Z,49.70
2018-06-19T18:48:40.401Z,49.55
2018-06-19T18:51:09.181Z,49.06
2018-06-19T18:53:37.934Z,49.68
2018-06-19T18:56:06.758Z,49.63
2018-06-19T18:58:35.747Z,49.77
2018-06-19T19:01:04.574Z,49.73
2018-06-19T19:03:33.557Z,50.73
2018-06-19T19:06:02.369Z,50.70
2018-06-19T19:08:31.149Z,50.64
2018-06-19T19:10:59.934Z,50.06
2018-06-19T19:13:29.171Z,49.97
2018-06-19T19:16:03.298Z,50.22
2018-06-19T19:18:37.310Z,50.03
2018-06-19T19:21:06.062Z,49.99
2018-06-19T19:23:34.877Z,50.57
2018-06-19T19:26:03.666Z,50.83
2018-06-19T19:28:37.558Z,50.00
2018-06-19T19:31:06.346Z,50.21
2018-06-19T19:33:35.151Z,50.69
2018-06-19T19:36:03.950Z,50.74
2018-06-19T19:38:37.821Z,51.15
2018-06-19T19:41:06.633Z,52.46
2018-06-19T19:43:35.420Z,53.29
2018-06-19T19:46:04.175Z,53.22
2018-06-19T19:48:37.933Z,53.68
2018-06-19T19:51:06.701Z,54.25
2018-06-19T19:53:35.480Z,54.44
2018-06-19T19:56:09.557Z,54.77
2018-06-19T19:58:43.373Z,54.51
2018-06-19T20:01:12.142Z,54.25
2018-06-19T20:03:40.884Z,53.61
2018-06-19T20:06:09.642Z,53.59
2018-06-19T20:08:38.400Z,53.93
2018-06-19T20:11:07.230Z,55.04
2018-06-19T20:13:35.994Z,54.99
2018-06-19T20:16:04.874Z,56.53
2018-06-19T20:18:33.661Z,59.08
2018-06-19T20:21:02.429Z,58.52
2018-06-19T20:23:31.233Z,57.44
2018-06-19T20:26:00.045Z,57.47
2018-06-19T20:28:28.807Z,57.25
2018-06-19T20:30:57.579Z,57.80
2018-06-19T20:33:26.397Z,57.43
2018-06-19T20:35:55.166Z,58.54
2018-06-19T20:38:23.985Z,58.53
2018-06-19T20:40:52.737Z,59.19
2018-06-19T20:43:21.501Z,59.08
2018-06-19T20:45:50.306Z,58.71
2018-06-19T20:48:19.147Z,58.57
2018-06-19T20:50:47.866Z,59.08
2018-06-19T20:53:16.641Z,59.00
2018-06-19T20:55:45.434Z,59.69
2018-06-19T20:58:14.222Z,59.74
2018-06-19T21:00:43.018Z,59.38
2018-06-19T21:03:11.806Z,59.05
2018-06-19T21:05:40.596Z,58.78
2018-06-19T21:08:09.426Z,59.37
2018-06-19T21:10:38.203Z,59.63
2018-06-19T21:13:06.989Z,60.75
2018-06-19T21:15:35.805Z,61.10
2018-06-19T21:18:04.558Z,60.62
2018-06-19T21:20:33.353Z,60.96
2018-06-19T21:23:02.227Z,62.55
2018-06-19T21:25:30.918Z,65.42
2018-06-19T21:27:59.662Z,64.96
2018-06-19T21:30:28.473Z,63.55
2018-06-19T21:32:57.266Z,62.46
2018-06-19T21:35:26.024Z,63.88
2018-06-19T21:37:54.822Z,63.87
2018-06-19T21:40:23.554Z,63.21
2018-06-19T21:42:52.299Z,62.39
2018-06-19T21:45:21.086Z,62.69
2018-06-19T21:47:49.886Z,62.32
2018-06-19T21:50:18.634Z,61.66
2018-06-19T21:52:47.401Z,61.19
2018-06-19T21:55:16.147Z,61.35
2018-06-19T21:57:44.894Z,61.21
2018-06-19T22:00:13.690Z,61.53
2018-06-19T22:02:42.461Z,60.85
2018-06-19T22:05:11.223Z,61.08
2018-06-19T22:07:40.026Z,61.43
2018-06-19T22:10:08.825Z,61.09
2018-06-19T22:12:37.605Z,61.12
2018-06-19T22:15:06.750Z,60.62
2018-06-19T22:17:35.554Z,61.20
2018-06-19T22:20:04.423Z,60.73
2018-06-19T22:22:33.206Z,61.49
2018-06-19T22:25:01.956Z,61.29
2018-06-19T22:27:30.745Z,61.27
2018-06-19T22:29:59.538Z,61.25
2018-06-19T22:32:28.361Z,60.75
2018-06-19T22:34:57.123Z,60.58
2018-06-19T22:37:25.979Z,60.94
2018-06-19T22:39:54.713Z,60.26
2018-06-19T22:42:23.453Z,60.43
2018-06-19T22:44:52.225Z,61.04
2018-06-19T22:47:20.987Z,60.88
2018-06-19T22:49:49.744Z,60.69
2018-06-19T22:52:18.853Z,61.12
2018-06-19T22:54:47.619Z,60.83
2018-06-19T22:57:16.380Z,60.71
2018-06-19T22:59:45.149Z,60.35
2018-06-19T23:02:13.922Z,61.11
2018-06-19T23:04:42.710Z,61.12
2018-06-19T23:07:11.466Z,60.58
2018-06-19T23:09:40.209Z,60.49
2018-06-19T23:12:09.006Z,61.21
2018-06-19T23:14:37.872Z,60.73
2018-06-19T23:17:06.656Z,61.51
2018-06-19T23:19:35.415Z,61.68
2018-06-19T23:22:04.221Z,61.08
2018-06-19T23:24:32.973Z,61.28
2018-06-19T23:27:01.714Z,61.27
2018-06-19T23:29:30.477Z,61.94
2018-06-19T23:31:59.246Z,62.19
2018-06-19T23:34:27.994Z,62.37
2018-06-19T23:36:56.773Z,62.19
2018-06-19T23:39:25.533Z,62.31
2018-06-19T23:41:54.286Z,62.82
2018-06-19T23:44:23.090Z,63.13
2018-06-19T23:46:51.867Z,64.29
2018-06-19T23:49:20.602Z,62.55
2018-06-19T23:51:49.406Z,63.67
2018-06-19T23:54:18.195Z,63.38
2018-06-19T23:56:46.994Z,62.81
2018-06-19T23:59:15.775Z,64.14
